Haywood NorAm Easterns AltaGas Cl Sprints 2019 | Zone4.ca

Haywood NorAm Easterns AltaGas Cl Sprints 2019

Date: Feb 1, 2019
Unofficial  Results
Location: Duntroon
Host Club: Highlands Trailblazers

Jury
Technical Delegate:  Jacques Dumont 
Chief of Competition:  Shawn Sinclair 
Assistant TD  Pierrot Bernier 
Apprentice TD  Claude Laramee 
Asst. Chief of Comp  Al White 
CCC Race Direor  Dave Dyer 
Obs. Time: 10:20am
Wind Vel:  15 km/hr Wind Dir: SW
Air Temp: -16C Snow Temp:
Weather: sunny Snow Cond: fresh

Open Women 1.5 km. Classic  1.5 K Sprint Course Course Info:  MC: 20m   HD: 35m   TC: 53m 
PL Bib Name SubCategory Rnk CCCLicence FISLicence DOB Province Club Team RealTime Diff
1 1 Laura Leclair Senior Women 1/24 27396 3105222 1997   Chelsea Nordiq (QC) CNEPH 0:03:49.94  
2 2 Katie Weaver Senior Women 2/24 26344 3105224 1997 BC Hollyburn Ski Club RMR 0:03:50.62 +0.68
3 4 Zoë Williams Senior Women 3/24 27366 3105281 1997   Nakkertok Nordique (QC) QCST/ Carleton U 0:03:55.30 +5.36
4 3 Annika Richardson Senior Women 4/24 27417 3105236 1998 ON Lappe Nordic NTDC TBay 0:03:56.39 +6.45
5 8 Hannah Shields Senior Women 5/24 37995 3105340 1998   Nakkertok Nordique (QC)   0:04:02.30 +12.36
6 6 Frédérique Vézina Senior Women 6/24 19234 3105157 1994   C.N.E.P.H CNEPH 0:04:03.61 +13.67
7 5 Mia Serratore Senior Women 7/24 23769 3105174 1996 ON Big Thunder Nordic   0:04:03.90 +13.96
8 13 Shaylynn Loewen Junior Women 1/26 33371 3105320 2000 ON Georgian Nordic NTDC TBay 0:04:06.55 +16.61
9 11 Bronwyn Williams Junior Women 2/26 31834   1999   Nakkertok Nordique (QC)   0:04:14.01 +24.07
10 24 Stella Duncan Junior Women 3/26 36523 3105348 2002   Chelsea Nordiq (QC)   0:04:14.14 +24.20
11 10 Heidi Stewart Junior Women 4/26 27375 3105356 2000 ON Big Thunder Nordic NTDC TBay 0:04:14.50 +24.56
12 19 Anna Stewart Junior Women 5/26 30212   2003 ON Big Thunder Nordic   0:04:16.20 +26.26
13 9 Tove Halvorsen Junior Women 6/26 31050 3105294 1999   Nakkertok Nordique (QC) QCST 0:04:17.68 +27.74
14 18 Maggie McClure Senior Women 8/24 30248   1998 NS Halifax Nordic NSST 0:04:18.46 +28.52
15 7 Liliane Gagnon Junior Women 7/26 36478 3105327 2002   Skibec   0:04:19.12 +29.18
16 14 Erin Yungblut Senior Women 9/24 21597 3105336 1993 AB Rocky Mountain Racers RMR 0:04:20.20 +30.26
17 25 Laura Inkila Senior Women 10/24 25805   1997 ON Lappe Nordic   0:04:20.50 +30.56
18 21 Emma Holmes Senior Women 11/24 29422   1998 AB Rocky Mountain Racers Carleton U 0:04:21.34 +31.40
19 22 Alyssa Stowe Senior Women 12/24 27371   1997 ON Carleton University Carleton U 0:04:22.48 +32.54
20 12 Alexandra Slobodian Senior Women 13/24 23717 3105225 1995 ON Nakkertok Nordic (ON) Carleton U 0:04:23.15 +33.21
21 30 Sophia Marshall Junior Women 8/26 36521   2003 ON Highlands Trailblazers   0:04:23.60 +33.66
22 27 Freya Hik Senior Women 14/24 33376 3105311 1995 BC Hollyburn Ski Club   0:04:26.33 +36.39
23 15 Chloe Ranahan Junior Women 9/26 33123 3105347 2000 ON Nakkertok Nordic (ON) Carleton U 0:04:26.35 +36.41
24 16 Erika Mihell Senior Women 15/24 28155   1997 ON Soo Finnish Lakehead U 0:04:26.80 +36.86
25 31 Emily Drake Senior Women 16/24 35751   1998 ON North Bay Nordic Nipissing U 0:04:29.64 +39.70
26 17 Lotte Kallio Junior Women 10/26 33385 3105354 1999   Chelsea Nordiq (QC)   0:04:31.56 +41.62
27 32 Leyla Barber Junior Women 11/26 33150 3105362 2002 ON Team Hardwood   0:04:32.28 +42.34
28 26 Dahlia Lapointe Junior Women 12/26 37234 3105369 2002 YT Whitehorse Ski Club YTST 0:04:35.46 +45.52
29 20 Sonjaa Schmidt Junior Women 13/26 37239 3105370 2002 YT Whitehorse Ski Club YTST 0:04:39.48 +49.54
30 51 Hannah Skelton Junior Women 14/26 DL24   2000 ON Highlands Trailblazers   0:04:41.42 +51.48
31 41 Hannah Rydlo Junior Women 15/26 38889   2003 ON Highlands Trailblazers   0:04:41.85 +51.91
32 37 Emma Cornell Junior Women 16/26 37839   2003 ON Highlands Trailblazers   0:04:48.28 +58.34
33 23 Jessica Roach Senior Women 17/24 35355 3105290 1998 ON Team Hardwood Georgian College 0:04:49.97 +1:00.03
34 40 Lily Wortley Junior Women 17/26 38846   2002 ON Highlands Trailblazers   0:04:50.08 +1:00.14
35 29 Shelby Howard Senior Women 18/24 29274   1998 ON Carleton University Carleton U 0:04:55.18 +1:05.24
36 33 Sophia Slater Junior Women 18/26 37777   1999 ON North Bay Nordic Nipissing U 0:04:58.63 +1:08.69
37 35 Meghan Burns Junior Women 19/26 31412   1999 ON Nakkertok Nordic (ON) Carleton U 0:05:00.28 +1:10.34
38 36 Emerson Bach Junior Women 20/26 41189   1999 ON North Bay Nordic Nipissing U 0:05:04.28 +1:14.34
39 50 Lindsay Raymond Junior Women 21/26 DL69   1999 ON Georgian Nordic Northern Ontario Division Junior Lakers 0:05:06.06 +1:16.12
40 34 Tessa Warkentine Junior Women 22/26 36512   2000 MB Boundary Trails Nordic MBST 0:05:10.12 +1:20.18
41 43 Fiona Schute Junior Women 23/26 33147   2000 ON Nakkertok Nordic (ON)   0:05:15.22 +1:25.28
42 44 Raylan Stroud Senior Women 19/24 38916   1996 ON Arrowhead Nordic U of Guelph 0:05:15.97 +1:26.03
43 28 Mariah Hudec Senior Women 20/24 24504   1992 NS North Highlands Nordic NSST 0:05:16.54 +1:26.60
44 49 Olivia Wolfram Junior Women 24/26 DL32   1999 ON Laurentian Nordic Laurentian U 0:05:17.27 +1:27.33
45 38 Laura Parent Junior Women 25/26 43079   2000 ON Carleton University Carleton U 0:05:20.65 +1:30.71
46 48 Katie Grove Senior Women 21/24 DL48   1996 ON Laurentian Nordic Laurentian U 0:05:25.90 +1:35.96
47 46 Jordyn Leighton Senior Women 22/24 DL68   1998 ON Carleton University Carleton University 0:05:33.78 +1:43.84
48 47 Marina Tusz Senior Women 23/24 DL31   1998 ON Laurentian Nordic Laurentian U 0:05:41.35 +1:51.41
49 42 Angela Cronhelm Junior Women 26/26 30224   2000   Aurora Nordic XCNL 0:05:48.21 +1:58.27
50 39 Holly Fleming Senior Women 24/24 42164   1995 ON Big Thunder Nordic Lakehead University 0:06:16.04 +2:26.10


Results are posted through an automated system by licenced clubs. For inquires about result corrections please contact the race organizer.

Copyright 2021 - Zone4 Systems zone4.ca       Privacy Policy     Delivery/Refund Policy     Terms of Service    Contact Zone4